sensor_id;sensor_type;location;lat;lon;timestamp;temperature;humidity
40255;DHT22;25973;52.368;4.940;2022-11-20T00:00:25;1.60;99.90
40255;DHT22;25973;52.368;4.940;2022-11-20T00:02:50;1.50;99.90
40255;DHT22;25973;52.368;4.940;2022-11-20T00:05:16;1.50;99.90
40255;DHT22;25973;52.368;4.940;2022-11-20T00:07:42;1.40;99.90
40255;DHT22;25973;52.368;4.940;2022-11-20T00:10:08;1.40;99.90
40255;DHT22;25973;52.368;4.940;2022-11-20T00:12:33;1.40;99.90
40255;DHT22;25973;52.368;4.940;2022-11-20T00:14:59;1.30;99.90
40255;DHT22;25973;52.368;4.940;2022-11-20T00:17:24;1.30;99.90
40255;DHT22;25973;52.368;4.940;2022-11-20T00:19:50;1.30;99.90
40255;DHT22;25973;52.368;4.940;2022-11-20T00:22:15;1.40;99.90
40255;DHT22;25973;52.368;4.940;2022-11-20T00:24:41;1.40;99.90
40255;DHT22;25973;52.368;4.940;2022-11-20T00:27:07;1.40;99.90
40255;DHT22;25973;52.368;4.940;2022-11-20T00:29:32;1.40;99.90
40255;DHT22;25973;52.368;4.940;2022-11-20T00:31:58;1.30;99.90
40255;DHT22;25973;52.368;4.940;2022-11-20T00:34:23;1.30;99.90
40255;DHT22;25973;52.368;4.940;2022-11-20T00:36:52;1.30;99.90
40255;DHT22;25973;52.368;4.940;2022-11-20T00:39:17;1.40;99.90
40255;DHT22;25973;52.368;4.940;2022-11-20T00:41:43;1.40;99.90
40255;DHT22;25973;52.368;4.940;2022-11-20T00:44:08;1.30;99.90
40255;DHT22;25973;52.368;4.940;2022-11-20T00:46:34;1.30;99.90
40255;DHT22;25973;52.368;4.940;2022-11-20T00:48:59;1.20;99.90
40255;DHT22;25973;52.368;4.940;2022-11-20T00:51:26;1.20;99.90
40255;DHT22;25973;52.368;4.940;2022-11-20T00:53:54;1.20;99.90
40255;DHT22;25973;52.368;4.940;2022-11-20T00:56:19;1.20;99.90
40255;DHT22;25973;52.368;4.940;2022-11-20T00:58:47;1.10;99.90
40255;DHT22;25973;52.368;4.940;2022-11-20T01:01:18;1.10;99.90
40255;DHT22;25973;52.368;4.940;2022-11-20T01:03:49;1.10;99.90
40255;DHT22;25973;52.368;4.940;2022-11-20T01:06:17;1.10;99.90
40255;DHT22;25973;52.368;4.940;2022-11-20T01:08:45;1.10;99.90
40255;DHT22;25973;52.368;4.940;2022-11-20T01:11:13;1.20;99.90
40255;DHT22;25973;52.368;4.940;2022-11-20T01:13:39;1.20;99.90
40255;DHT22;25973;52.368;4.940;2022-11-20T01:16:12;1.30;99.90
40255;DHT22;25973;52.368;4.940;2022-11-20T01:18:39;1.40;99.90
40255;DHT22;25973;52.368;4.940;2022-11-20T01:21:16;1.30;99.90
40255;DHT22;25973;52.368;4.940;2022-11-20T01:23:43;1.40;99.90
40255;DHT22;25973;52.368;4.940;2022-11-20T01:26:15;1.40;99.90
40255;DHT22;25973;52.368;4.940;2022-11-20T01:28:45;1.40;99.90
40255;DHT22;25973;52.368;4.940;2022-11-20T01:33:40;1.50;99.90
40255;DHT22;25973;52.368;4.940;2022-11-20T01:36:07;1.40;99.90
40255;DHT22;25973;52.368;4.940;2022-11-20T01:38:33;1.50;99.90
40255;DHT22;25973;52.368;4.940;2022-11-20T01:40:58;1.40;99.90
40255;DHT22;25973;52.368;4.940;2022-11-20T01:43:25;1.40;99.90
40255;DHT22;25973;52.368;4.940;2022-11-20T01:48:28;1.50;99.90
40255;DHT22;25973;52.368;4.940;2022-11-20T01:50:55;1.50;99.90
40255;DHT22;25973;52.368;4.940;2022-11-20T01:53:26;1.50;99.90
40255;DHT22;25973;52.368;4.940;2022-11-20T01:55:54;1.40;99.90
40255;DHT22;25973;52.368;4.940;2022-11-20T01:58:25;1.40;99.90
40255;DHT22;25973;52.368;4.940;2022-11-20T02:00:52;1.40;99.90
40255;DHT22;25973;52.368;4.940;2022-11-20T02:03:19;1.40;99.90
40255;DHT22;25973;52.368;4.940;2022-11-20T02:05:51;1.30;99.90
40255;DHT22;25973;52.368;4.940;2022-11-20T02:08:20;1.30;99.90
40255;DHT22;25973;52.368;4.940;2022-11-20T02:10:46;1.30;99.90
40255;DHT22;25973;52.368;4.940;2022-11-20T02:13:12;1.30;99.90
40255;DHT22;25973;52.368;4.940;2022-11-20T02:15:57;1.30;99.90
40255;DHT22;25973;52.368;4.940;2022-11-20T02:18:24;1.20;99.90
40255;DHT22;25973;52.368;4.940;2022-11-20T02:20:54;1.20;99.90
40255;DHT22;25973;52.368;4.940;2022-11-20T02:23:23;1.20;99.90
40255;DHT22;25973;52.368;4.940;2022-11-20T02:25:52;1.20;99.90
40255;DHT22;25973;52.368;4.940;2022-11-20T02:28:19;1.20;99.90
40255;DHT22;25973;52.368;4.940;2022-11-20T02:30:46;1.20;99.90
40255;DHT22;25973;52.368;4.940;2022-11-20T02:33:12;1.20;99.90
40255;DHT22;25973;52.368;4.940;2022-11-20T02:35:45;1.20;99.90
40255;DHT22;25973;52.368;4.940;2022-11-20T02:38:13;1.20;99.90
40255;DHT22;25973;52.368;4.940;2022-11-20T02:40:39;1.20;99.90
40255;DHT22;25973;52.368;4.940;2022-11-20T02:43:05;1.20;99.90
40255;DHT22;25973;52.368;4.940;2022-11-20T02:45:30;1.20;99.90
40255;DHT22;25973;52.368;4.940;2022-11-20T02:47:56;1.20;99.90
40255;DHT22;25973;52.368;4.940;2022-11-20T02:50:22;1.20;99.90
40255;DHT22;25973;52.368;4.940;2022-11-20T02:52:48;1.20;99.90
40255;DHT22;25973;52.368;4.940;2022-11-20T02:55:13;1.20;99.90
40255;DHT22;25973;52.368;4.940;2022-11-20T02:57:40;1.20;99.90
40255;DHT22;25973;52.368;4.940;2022-11-20T03:00:06;1.20;99.90
40255;DHT22;25973;52.368;4.940;2022-11-20T03:02:33;1.20;99.90
40255;DHT22;25973;52.368;4.940;2022-11-20T03:04:58;1.30;99.90
40255;DHT22;25973;52.368;4.940;2022-11-20T03:07:24;1.30;99.90
40255;DHT22;25973;52.368;4.940;2022-11-20T03:09:51;1.30;99.90
40255;DHT22;25973;52.368;4.940;2022-11-20T03:12:17;1.30;99.90
40255;DHT22;25973;52.368;4.940;2022-11-20T03:14:42;1.30;99.90
40255;DHT22;25973;52.368;4.940;2022-11-20T03:17:08;1.40;99.90
40255;DHT22;25973;52.368;4.940;2022-11-20T03:19:34;1.30;99.90
40255;DHT22;25973;52.368;4.940;2022-11-20T03:22:00;1.40;99.90
40255;DHT22;25973;52.368;4.940;2022-11-20T03:24:26;1.40;99.90
40255;DHT22;25973;52.368;4.940;2022-11-20T03:26:52;1.30;99.90
40255;DHT22;25973;52.368;4.940;2022-11-20T03:29:17;1.30;99.90
40255;DHT22;25973;52.368;4.940;2022-11-20T03:31:43;1.30;99.90
40255;DHT22;25973;52.368;4.940;2022-11-20T03:34:09;1.30;99.90
40255;DHT22;25973;52.368;4.940;2022-11-20T03:36:38;1.30;99.90
40255;DHT22;25973;52.368;4.940;2022-11-20T03:39:04;1.30;99.90
40255;DHT22;25973;52.368;4.940;2022-11-20T03:41:31;1.20;99.90
40255;DHT22;25973;52.368;4.940;2022-11-20T03:43:58;1.10;99.90
40255;DHT22;25973;52.368;4.940;2022-11-20T03:46:25;1.10;99.90
40255;DHT22;25973;52.368;4.940;2022-11-20T03:48:50;1.10;99.90
40255;DHT22;25973;52.368;4.940;2022-11-20T03:51:18;1.10;99.90
40255;DHT22;25973;52.368;4.940;2022-11-20T03:53:46;1.20;99.90
40255;DHT22;25973;52.368;4.940;2022-11-20T03:56:14;1.20;99.90
40255;DHT22;25973;52.368;4.940;2022-11-20T03:58:42;1.20;99.90
40255;DHT22;25973;52.368;4.940;2022-11-20T04:01:22;1.20;99.90
40255;DHT22;25973;52.368;4.940;2022-11-20T04:03:48;1.10;99.90
40255;DHT22;25973;52.368;4.940;2022-11-20T04:06:19;1.10;99.90
40255;DHT22;25973;52.368;4.940;2022-11-20T04:08:45;1.10;99.90
40255;DHT22;25973;52.368;4.940;2022-11-20T04:11:17;1.10;99.90
40255;DHT22;25973;52.368;4.940;2022-11-20T04:13:46;1.10;99.90
40255;DHT22;25973;52.368;4.940;2022-11-20T04:16:12;1.10;99.90
40255;DHT22;25973;52.368;4.940;2022-11-20T04:18:38;1.10;99.90
40255;DHT22;25973;52.368;4.940;2022-11-20T04:21:05;1.10;99.90
40255;DHT22;25973;52.368;4.940;2022-11-20T04:23:31;1.10;99.90
40255;DHT22;25973;52.368;4.940;2022-11-20T04:26:05;1.10;99.90
40255;DHT22;25973;52.368;4.940;2022-11-20T04:28:30;1.10;99.90
40255;DHT22;25973;52.368;4.940;2022-11-20T04:31:04;1.10;99.90
40255;DHT22;25973;52.368;4.940;2022-11-20T04:33:30;1.10;99.90
40255;DHT22;25973;52.368;4.940;2022-11-20T04:36:03;1.10;99.90
40255;DHT22;25973;52.368;4.940;2022-11-20T04:38:29;1.10;99.90
40255;DHT22;25973;52.368;4.940;2022-11-20T04:40:59;1.00;99.90
40255;DHT22;25973;52.368;4.940;2022-11-20T04:43:25;1.10;99.90
40255;DHT22;25973;52.368;4.940;2022-11-20T04:45:52;1.10;99.90
40255;DHT22;25973;52.368;4.940;2022-11-20T04:48:18;1.00;99.90
40255;DHT22;25973;52.368;4.940;2022-11-20T04:50:45;1.00;99.90
40255;DHT22;25973;52.368;4.940;2022-11-20T04:53:10;1.00;99.90
40255;DHT22;25973;52.368;4.940;2022-11-20T04:55:37;1.00;99.90
40255;DHT22;25973;52.368;4.940;2022-11-20T04:58:05;0.90;99.90
40255;DHT22;25973;52.368;4.940;2022-11-20T05:00:31;0.90;99.90
40255;DHT22;25973;52.368;4.940;2022-11-20T05:02:57;0.90;99.90
40255;DHT22;25973;52.368;4.940;2022-11-20T05:05:22;0.90;99.90
40255;DHT22;25973;52.368;4.940;2022-11-20T05:07:48;0.90;99.90
40255;DHT22;25973;52.368;4.940;2022-11-20T05:10:14;0.90;99.90
40255;DHT22;25973;52.368;4.940;2022-11-20T05:12:39;0.90;99.90
40255;DHT22;25973;52.368;4.940;2022-11-20T05:15:05;0.90;99.90
40255;DHT22;25973;52.368;4.940;2022-11-20T05:17:31;0.90;99.90
40255;DHT22;25973;52.368;4.940;2022-11-20T05:19:59;0.90;99.90
40255;DHT22;25973;52.368;4.940;2022-11-20T05:22:24;0.90;99.90
40255;DHT22;25973;52.368;4.940;2022-11-20T05:24:50;0.90;99.90
40255;DHT22;25973;52.368;4.940;2022-11-20T05:27:15;0.90;99.90
40255;DHT22;25973;52.368;4.940;2022-11-20T05:29:41;0.90;99.90
40255;DHT22;25973;52.368;4.940;2022-11-20T05:32:07;0.90;99.90
40255;DHT22;25973;52.368;4.940;2022-11-20T05:34:35;0.90;99.90
40255;DHT22;25973;52.368;4.940;2022-11-20T05:37:01;0.80;99.90
40255;DHT22;25973;52.368;4.940;2022-11-20T05:39:27;0.90;99.90
40255;DHT22;25973;52.368;4.940;2022-11-20T05:41:52;0.80;99.90
40255;DHT22;25973;52.368;4.940;2022-11-20T05:44:38;0.80;99.90
40255;DHT22;25973;52.368;4.940;2022-11-20T05:47:04;0.80;99.90
40255;DHT22;25973;52.368;4.940;2022-11-20T05:49:29;0.80;99.90
40255;DHT22;25973;52.368;4.940;2022-11-20T05:51:55;0.80;99.90
40255;DHT22;25973;52.368;4.940;2022-11-20T05:54:20;0.80;99.90
40255;DHT22;25973;52.368;4.940;2022-11-20T05:56:46;0.80;99.90
40255;DHT22;25973;52.368;4.940;2022-11-20T05:59:11;0.80;99.90
40255;DHT22;25973;52.368;4.940;2022-11-20T06:01:37;0.80;99.90
40255;DHT22;25973;52.368;4.940;2022-11-20T06:04:05;0.80;99.90
40255;DHT22;25973;52.368;4.940;2022-11-20T06:06:31;0.80;99.90
40255;DHT22;25973;52.368;4.940;2022-11-20T06:08:56;0.80;99.90
40255;DHT22;25973;52.368;4.940;2022-11-20T06:11:24;0.80;99.90
40255;DHT22;25973;52.368;4.940;2022-11-20T06:13:50;0.80;99.90
40255;DHT22;25973;52.368;4.940;2022-11-20T06:16:17;0.80;99.90
40255;DHT22;25973;52.368;4.940;2022-11-20T06:18:44;0.80;99.90
40255;DHT22;25973;52.368;4.940;2022-11-20T06:21:13;0.80;99.90
40255;DHT22;25973;52.368;4.940;2022-11-20T06:23:39;0.70;99.90
40255;DHT22;25973;52.368;4.940;2022-11-20T06:26:07;0.70;99.90
40255;DHT22;25973;52.368;4.940;2022-11-20T06:28:33;0.70;99.90
40255;DHT22;25973;52.368;4.940;2022-11-20T06:30:59;0.60;99.90
40255;DHT22;25973;52.368;4.940;2022-11-20T06:33:25;0.60;99.90
40255;DHT22;25973;52.368;4.940;2022-11-20T06:35:51;0.50;99.90
40255;DHT22;25973;52.368;4.940;2022-11-20T06:38:16;0.50;99.90
40255;DHT22;25973;52.368;4.940;2022-11-20T06:40:42;0.50;99.90
40255;DHT22;25973;52.368;4.940;2022-11-20T06:43:09;0.50;99.90
40255;DHT22;25973;52.368;4.940;2022-11-20T06:45:35;0.50;99.90
40255;DHT22;25973;52.368;4.940;2022-11-20T06:48:01;0.50;99.90
40255;DHT22;25973;52.368;4.940;2022-11-20T06:50:26;0.50;99.90
40255;DHT22;25973;52.368;4.940;2022-11-20T06:52:52;0.60;99.90
40255;DHT22;25973;52.368;4.940;2022-11-20T06:55:20;0.50;99.90
40255;DHT22;25973;52.368;4.940;2022-11-20T06:57:46;0.50;99.90
40255;DHT22;25973;52.368;4.940;2022-11-20T07:00:11;0.50;99.90
40255;DHT22;25973;52.368;4.940;2022-11-20T07:02:37;0.50;99.90
40255;DHT22;25973;52.368;4.940;2022-11-20T07:05:03;0.50;99.90
40255;DHT22;25973;52.368;4.940;2022-11-20T07:07:29;0.60;99.90
40255;DHT22;25973;52.368;4.940;2022-11-20T07:09:54;0.50;99.90
40255;DHT22;25973;52.368;4.940;2022-11-20T07:12:20;0.50;99.90
40255;DHT22;25973;52.368;4.940;2022-11-20T07:14:45;0.50;99.90
40255;DHT22;25973;52.368;4.940;2022-11-20T07:17:12;0.50;99.90
40255;DHT22;25973;52.368;4.940;2022-11-20T07:19:38;0.50;99.90
40255;DHT22;25973;52.368;4.940;2022-11-20T07:22:03;0.50;99.90
40255;DHT22;25973;52.368;4.940;2022-11-20T07:24:29;0.50;99.90
40255;DHT22;25973;52.368;4.940;2022-11-20T07:26:55;0.50;99.90
40255;DHT22;25973;52.368;4.940;2022-11-20T07:29:20;0.50;99.90
40255;DHT22;25973;52.368;4.940;2022-11-20T07:31:45;0.50;99.90
40255;DHT22;25973;52.368;4.940;2022-11-20T07:34:11;0.50;99.90
40255;DHT22;25973;52.368;4.940;2022-11-20T07:36:37;0.50;99.90
40255;DHT22;25973;52.368;4.940;2022-11-20T07:39:02;0.50;99.90
40255;DHT22;25973;52.368;4.940;2022-11-20T07:41:29;0.50;99.90
40255;DHT22;25973;52.368;4.940;2022-11-20T07:43:55;0.50;99.90
40255;DHT22;25973;52.368;4.940;2022-11-20T07:46:21;0.40;99.90
40255;DHT22;25973;52.368;4.940;2022-11-20T07:48:46;0.40;99.90
40255;DHT22;25973;52.368;4.940;2022-11-20T07:51:12;0.40;99.90
40255;DHT22;25973;52.368;4.940;2022-11-20T07:53:38;0.40;99.90
40255;DHT22;25973;52.368;4.940;2022-11-20T07:56:04;0.50;99.90
40255;DHT22;25973;52.368;4.940;2022-11-20T07:58:30;0.50;99.90
40255;DHT22;25973;52.368;4.940;2022-11-20T08:01:02;0.60;99.90
40255;DHT22;25973;52.368;4.940;2022-11-20T08:03:27;0.60;99.90
40255;DHT22;25973;52.368;4.940;2022-11-20T08:05:53;0.60;99.90
40255;DHT22;25973;52.368;4.940;2022-11-20T08:08:18;0.60;99.90
40255;DHT22;25973;52.368;4.940;2022-11-20T08:10:47;0.60;99.90
40255;DHT22;25973;52.368;4.940;2022-11-20T08:13:13;0.70;99.90
40255;DHT22;25973;52.368;4.940;2022-11-20T08:15:57;0.70;99.90
40255;DHT22;25973;52.368;4.940;2022-11-20T08:18:24;0.80;99.90
40255;DHT22;25973;52.368;4.940;2022-11-20T08:20:49;0.80;99.90
40255;DHT22;25973;52.368;4.940;2022-11-20T08:23:15;0.80;99.90
40255;DHT22;25973;52.368;4.940;2022-11-20T08:25:40;0.90;99.90
40255;DHT22;25973;52.368;4.940;2022-11-20T08:28:08;1.00;99.90
40255;DHT22;25973;52.368;4.940;2022-11-20T08:30:35;1.00;99.90
40255;DHT22;25973;52.368;4.940;2022-11-20T08:33:05;1.00;99.90
40255;DHT22;25973;52.368;4.940;2022-11-20T08:35:35;1.10;99.90
40255;DHT22;25973;52.368;4.940;2022-11-20T08:38:05;1.20;99.90
40255;DHT22;25973;52.368;4.940;2022-11-20T08:40:31;1.30;99.90
40255;DHT22;25973;52.368;4.940;2022-11-20T08:42:57;1.40;99.90
40255;DHT22;25973;52.368;4.940;2022-11-20T08:45:23;1.50;99.90
40255;DHT22;25973;52.368;4.940;2022-11-20T08:47:49;1.50;99.90
40255;DHT22;25973;52.368;4.940;2022-11-20T08:50:15;1.40;99.90
40255;DHT22;25973;52.368;4.940;2022-11-20T08:52:42;1.40;99.90
40255;DHT22;25973;52.368;4.940;2022-11-20T08:55:08;1.40;99.90
40255;DHT22;25973;52.368;4.940;2022-11-20T08:57:35;1.50;99.90
40255;DHT22;25973;52.368;4.940;2022-11-20T09:00:02;1.50;99.90
40255;DHT22;25973;52.368;4.940;2022-11-20T09:02:28;1.60;99.90
40255;DHT22;25973;52.368;4.940;2022-11-20T09:04:54;1.60;99.90
40255;DHT22;25973;52.368;4.940;2022-11-20T09:07:20;1.50;99.90
40255;DHT22;25973;52.368;4.940;2022-11-20T09:09:45;1.50;99.90
40255;DHT22;25973;52.368;4.940;2022-11-20T09:12:11;1.40;99.90
40255;DHT22;25973;52.368;4.940;2022-11-20T09:14:36;1.40;99.90
40255;DHT22;25973;52.368;4.940;2022-11-20T09:17:02;1.40;99.90
40255;DHT22;25973;52.368;4.940;2022-11-20T09:19:28;1.30;99.90
40255;DHT22;25973;52.368;4.940;2022-11-20T09:21:53;1.30;99.90
40255;DHT22;25973;52.368;4.940;2022-11-20T09:24:19;1.30;99.90
40255;DHT22;25973;52.368;4.940;2022-11-20T09:26:46;1.40;99.90
40255;DHT22;25973;52.368;4.940;2022-11-20T09:29:12;1.40;99.90
40255;DHT22;25973;52.368;4.940;2022-11-20T09:31:37;1.50;99.90
40255;DHT22;25973;52.368;4.940;2022-11-20T09:34:03;1.70;99.90
40255;DHT22;25973;52.368;4.940;2022-11-20T09:36:28;1.70;99.90
40255;DHT22;25973;52.368;4.940;2022-11-20T09:38:54;1.80;99.90
40255;DHT22;25973;52.368;4.940;2022-11-20T09:46:57;1.80;99.90
40255;DHT22;25973;52.368;4.940;2022-11-20T09:52:44;2.10;99.90
40255;DHT22;25973;52.368;4.940;2022-11-20T09:55:14;2.20;99.90
40255;DHT22;25973;52.368;4.940;2022-11-20T09:57:43;2.30;99.90
40255;DHT22;25973;52.368;4.940;2022-11-20T10:00:11;2.50;99.90
40255;DHT22;25973;52.368;4.940;2022-11-20T10:02:47;2.50;99.90
40255;DHT22;25973;52.368;4.940;2022-11-20T10:05:27;2.70;99.90
40255;DHT22;25973;52.368;4.940;2022-11-20T10:10:52;4.40;99.90
40255;DHT22;25973;52.368;4.940;2022-11-20T10:14:01;5.10;99.90
40255;DHT22;25973;52.368;4.940;2022-11-20T10:19:43;6.40;99.90
40255;DHT22;25973;52.368;4.940;2022-11-20T10:22:31;6.20;99.90
40255;DHT22;25973;52.368;4.940;2022-11-20T10:25:14;5.50;99.90
40255;DHT22;25973;52.368;4.940;2022-11-20T10:27:49;4.90;99.90
40255;DHT22;25973;52.368;4.940;2022-11-20T10:30:20;4.40;99.90
40255;DHT22;25973;52.368;4.940;2022-11-20T10:35:26;3.70;99.90
40255;DHT22;25973;52.368;4.940;2022-11-20T10:38:06;3.50;99.90
40255;DHT22;25973;52.368;4.940;2022-11-20T10:40:42;3.30;99.90
40255;DHT22;25973;52.368;4.940;2022-11-20T10:43:13;3.20;99.90
40255;DHT22;25973;52.368;4.940;2022-11-20T10:46:01;3.20;99.90
40255;DHT22;25973;52.368;4.940;2022-11-20T10:48:29;3.00;99.90
40255;DHT22;25973;52.368;4.940;2022-11-20T10:51:23;2.90;99.90
40255;DHT22;25973;52.368;4.940;2022-11-20T10:54:27;2.90;99.90
40255;DHT22;25973;52.368;4.940;2022-11-20T10:57:00;2.90;99.90
40255;DHT22;25973;52.368;4.940;2022-11-20T10:59:38;2.80;99.90
40255;DHT22;25973;52.368;4.940;2022-11-20T11:02:21;2.80;99.90
40255;DHT22;25973;52.368;4.940;2022-11-20T11:04:53;2.70;99.90
40255;DHT22;25973;52.368;4.940;2022-11-20T11:07:23;2.70;99.90
40255;DHT22;25973;52.368;4.940;2022-11-20T11:09:54;2.70;99.90
40255;DHT22;25973;52.368;4.940;2022-11-20T11:12:22;2.80;99.90
40255;DHT22;25973;52.368;4.940;2022-11-20T11:14:51;2.70;99.90
40255;DHT22;25973;52.368;4.940;2022-11-20T11:17:23;2.70;99.90
40255;DHT22;25973;52.368;4.940;2022-11-20T11:20:06;2.80;99.90
40255;DHT22;25973;52.368;4.940;2022-11-20T11:25:22;2.80;99.90
40255;DHT22;25973;52.368;4.940;2022-11-20T11:27:52;2.80;99.90
40255;DHT22;25973;52.368;4.940;2022-11-20T11:30:19;2.80;99.90
40255;DHT22;25973;52.368;4.940;2022-11-20T11:32:46;2.80;99.90
40255;DHT22;25973;52.368;4.940;2022-11-20T11:35:26;2.80;99.90
40255;DHT22;25973;52.368;4.940;2022-11-20T11:37:54;2.90;99.90
40255;DHT22;25973;52.368;4.940;2022-11-20T11:40:21;2.90;99.90
40255;DHT22;25973;52.368;4.940;2022-11-20T11:42:56;2.90;99.90
40255;DHT22;25973;52.368;4.940;2022-11-20T11:45:23;2.90;99.90
40255;DHT22;25973;52.368;4.940;2022-11-20T11:47:50;2.90;99.90
40255;DHT22;25973;52.368;4.940;2022-11-20T11:50:22;2.80;99.90
40255;DHT22;25973;52.368;4.940;2022-11-20T11:53:07;2.80;99.90
40255;DHT22;25973;52.368;4.940;2022-11-20T11:55:43;2.80;99.90
40255;DHT22;25973;52.368;4.940;2022-11-20T12:01:07;2.70;99.90
40255;DHT22;25973;52.368;4.940;2022-11-20T12:03:37;2.60;99.90
40255;DHT22;25973;52.368;4.940;2022-11-20T12:06:13;2.60;99.90
40255;DHT22;25973;52.368;4.940;2022-11-20T12:09:11;2.50;99.90
40255;DHT22;25973;52.368;4.940;2022-11-20T12:12:18;2.50;99.90
40255;DHT22;25973;52.368;4.940;2022-11-20T12:14:37;2.50;99.90
40255;DHT22;25973;52.368;4.940;2022-11-20T12:17:05;2.50;99.90
40255;DHT22;25973;52.368;4.940;2022-11-20T12:19:31;2.50;99.90
40255;DHT22;25973;52.368;4.940;2022-11-20T12:24:43;2.50;99.90
40255;DHT22;25973;52.368;4.940;2022-11-20T12:33:26;2.50;99.90
40255;DHT22;25973;52.368;4.940;2022-11-20T12:44:46;2.50;99.90
40255;DHT22;25973;52.368;4.940;2022-11-20T12:47:55;2.50;99.90
40255;DHT22;25973;52.368;4.940;2022-11-20T12:56:24;2.60;99.90
40255;DHT22;25973;52.368;4.940;2022-11-20T13:01:55;2.70;99.90
40255;DHT22;25973;52.368;4.940;2022-11-20T13:04:45;2.70;99.90
40255;DHT22;25973;52.368;4.940;2022-11-20T13:07:14;2.70;99.90
40255;DHT22;25973;52.368;4.940;2022-11-20T13:09:45;2.70;99.90
40255;DHT22;25973;52.368;4.940;2022-11-20T13:12:42;2.60;99.90
40255;DHT22;25973;52.368;4.940;2022-11-20T13:15:35;2.60;99.90
40255;DHT22;25973;52.368;4.940;2022-11-20T13:18:02;2.60;99.90
40255;DHT22;25973;52.368;4.940;2022-11-20T13:20:30;2.60;99.90
40255;DHT22;25973;52.368;4.940;2022-11-20T13:22:57;2.70;99.90
40255;DHT22;25973;52.368;4.940;2022-11-20T13:25:38;2.70;99.90
40255;DHT22;25973;52.368;4.940;2022-11-20T13:28:28;2.70;99.90
40255;DHT22;25973;52.368;4.940;2022-11-20T13:30:58;2.70;99.90
40255;DHT22;25973;52.368;4.940;2022-11-20T13:33:32;2.80;99.90
40255;DHT22;25973;52.368;4.940;2022-11-20T13:36:03;2.70;99.90
40255;DHT22;25973;52.368;4.940;2022-11-20T13:38:47;2.70;99.90
40255;DHT22;25973;52.368;4.940;2022-11-20T13:41:28;2.80;99.90
40255;DHT22;25973;52.368;4.940;2022-11-20T13:46:42;2.80;99.90
40255;DHT22;25973;52.368;4.940;2022-11-20T13:49:17;2.80;99.90
40255;DHT22;25973;52.368;4.940;2022-11-20T13:51:52;2.80;99.90
40255;DHT22;25973;52.368;4.940;2022-11-20T13:57:42;2.80;99.90
40255;DHT22;25973;52.368;4.940;2022-11-20T14:00:21;2.80;99.90
40255;DHT22;25973;52.368;4.940;2022-11-20T14:03:08;2.80;99.90
40255;DHT22;25973;52.368;4.940;2022-11-20T14:05:39;2.80;99.90
40255;DHT22;25973;52.368;4.940;2022-11-20T14:08:12;2.70;99.90
40255;DHT22;25973;52.368;4.940;2022-11-20T14:10:38;2.70;99.90
40255;DHT22;25973;52.368;4.940;2022-11-20T14:13:19;2.80;99.90
40255;DHT22;25973;52.368;4.940;2022-11-20T14:15:45;2.90;99.90
40255;DHT22;25973;52.368;4.940;2022-11-20T14:18:24;2.90;99.90
40255;DHT22;25973;52.368;4.940;2022-11-20T14:20:53;2.90;99.90
40255;DHT22;25973;52.368;4.940;2022-11-20T14:23:27;3.00;99.90
40255;DHT22;25973;52.368;4.940;2022-11-20T14:25:53;3.00;99.90
40255;DHT22;25973;52.368;4.940;2022-11-20T14:30:51;3.10;99.90
40255;DHT22;25973;52.368;4.940;2022-11-20T14:33:17;3.20;99.90
40255;DHT22;25973;52.368;4.940;2022-11-20T14:35:50;3.20;99.90
40255;DHT22;25973;52.368;4.940;2022-11-20T14:38:17;3.10;99.90
40255;DHT22;25973;52.368;4.940;2022-11-20T14:40:44;3.10;99.90
40255;DHT22;25973;52.368;4.940;2022-11-20T14:46:07;3.20;99.90
40255;DHT22;25973;52.368;4.940;2022-11-20T14:51:12;3.20;99.90
40255;DHT22;25973;52.368;4.940;2022-11-20T14:53:50;3.20;99.90
40255;DHT22;25973;52.368;4.940;2022-11-20T14:56:24;3.20;99.90
40255;DHT22;25973;52.368;4.940;2022-11-20T14:58:57;3.10;99.90
40255;DHT22;25973;52.368;4.940;2022-11-20T15:01:28;3.10;99.90
40255;DHT22;25973;52.368;4.940;2022-11-20T15:04:10;3.10;99.90
40255;DHT22;25973;52.368;4.940;2022-11-20T15:06:37;3.10;99.90
40255;DHT22;25973;52.368;4.940;2022-11-20T15:09:04;3.10;99.90
40255;DHT22;25973;52.368;4.940;2022-11-20T15:11:33;3.10;99.90
40255;DHT22;25973;52.368;4.940;2022-11-20T15:14:03;3.20;99.90
40255;DHT22;25973;52.368;4.940;2022-11-20T15:16:30;3.20;99.90
40255;DHT22;25973;52.368;4.940;2022-11-20T15:18:56;3.20;99.90
40255;DHT22;25973;52.368;4.940;2022-11-20T15:21:21;3.20;99.90
40255;DHT22;25973;52.368;4.940;2022-11-20T15:23:48;3.20;99.90
40255;DHT22;25973;52.368;4.940;2022-11-20T15:26:22;3.30;99.90
40255;DHT22;25973;52.368;4.940;2022-11-20T15:28:49;3.20;99.90
40255;DHT22;25973;52.368;4.940;2022-11-20T15:31:18;3.30;99.90
40255;DHT22;25973;52.368;4.940;2022-11-20T15:33:44;3.30;99.90
40255;DHT22;25973;52.368;4.940;2022-11-20T15:36:10;3.30;99.90
40255;DHT22;25973;52.368;4.940;2022-11-20T15:38:36;3.20;99.90
40255;DHT22;25973;52.368;4.940;2022-11-20T15:41:02;3.20;99.90
40255;DHT22;25973;52.368;4.940;2022-11-20T15:43:29;3.20;99.90
40255;DHT22;25973;52.368;4.940;2022-11-20T15:46:02;3.20;99.90
40255;DHT22;25973;52.368;4.940;2022-11-20T15:48:35;3.20;99.90
40255;DHT22;25973;52.368;4.940;2022-11-20T15:51:21;3.20;99.90
40255;DHT22;25973;52.368;4.940;2022-11-20T15:53:49;3.20;99.90
40255;DHT22;25973;52.368;4.940;2022-11-20T15:56:15;3.30;99.90
40255;DHT22;25973;52.368;4.940;2022-11-20T15:58:41;3.30;99.90
40255;DHT22;25973;52.368;4.940;2022-11-20T16:01:11;3.30;99.90
40255;DHT22;25973;52.368;4.940;2022-11-20T16:03:38;3.30;99.90
40255;DHT22;25973;52.368;4.940;2022-11-20T16:06:04;3.30;99.90
40255;DHT22;25973;52.368;4.940;2022-11-20T16:08:30;3.40;99.90
40255;DHT22;25973;52.368;4.940;2022-11-20T16:10:58;3.40;99.90
40255;DHT22;25973;52.368;4.940;2022-11-20T16:13:24;3.40;99.90
40255;DHT22;25973;52.368;4.940;2022-11-20T16:18:47;3.40;99.90
40255;DHT22;25973;52.368;4.940;2022-11-20T16:21:13;3.50;99.90
40255;DHT22;25973;52.368;4.940;2022-11-20T16:23:39;3.50;99.90
40255;DHT22;25973;52.368;4.940;2022-11-20T16:26:15;3.50;99.90
40255;DHT22;25973;52.368;4.940;2022-11-20T16:28:45;3.50;99.90
40255;DHT22;25973;52.368;4.940;2022-11-20T16:31:12;3.50;99.90
40255;DHT22;25973;52.368;4.940;2022-11-20T16:33:38;3.50;99.90
40255;DHT22;25973;52.368;4.940;2022-11-20T16:36:12;3.40;99.90
40255;DHT22;25973;52.368;4.940;2022-11-20T16:38:38;3.40;99.90
40255;DHT22;25973;52.368;4.940;2022-11-20T16:41:04;3.50;99.90
40255;DHT22;25973;52.368;4.940;2022-11-20T16:43:30;3.50;99.90
40255;DHT22;25973;52.368;4.940;2022-11-20T16:45:55;3.40;99.90
40255;DHT22;25973;52.368;4.940;2022-11-20T16:48:21;3.40;99.90
40255;DHT22;25973;52.368;4.940;2022-11-20T16:50:49;3.40;99.90
40255;DHT22;25973;52.368;4.940;2022-11-20T16:53:16;3.40;99.90
40255;DHT22;25973;52.368;4.940;2022-11-20T16:55:42;3.40;99.90
40255;DHT22;25973;52.368;4.940;2022-11-20T16:58:07;3.40;99.90
40255;DHT22;25973;52.368;4.940;2022-11-20T17:00:36;3.40;99.90
40255;DHT22;25973;52.368;4.940;2022-11-20T17:03:02;3.40;99.90
40255;DHT22;25973;52.368;4.940;2022-11-20T17:05:29;3.40;99.90
40255;DHT22;25973;52.368;4.940;2022-11-20T17:07:55;3.50;99.90